Terminal Aerodrome Forecast
Issued by NWS Quad Cities IA IL

Home | Current Version | Previous Version | Text Only | Print | Product List | Glossary On
Versions: 1 2 3 4 5 6 7 8 9 10 11 12 13 14 15 16 17 18 19 20 21 22 23 24 25 26 27 28 29 30 31 32 33 34 35
546
FTUS43 KDVN 220847 AAB
TAFDBQ
TAF AMD
KDBQ 220847Z 2209/2306 17010KT P6SM SCT004 BKN150
      TEMPO 2209/2211 VRB05KT 4SM BR BKN004
     FM221500 11006KT P6SM FEW040 SCT120
     FM222300 20008KT P6SM SCT250=

USA.gov is the U.S. government's official web portal to all federal, state and local government web resources and services.